sensor_id;sensor_type;location;lat;lon;timestamp;temperature;humidity
49731;DHT22;35622;52.008;5.426;2022-12-29T00:01:55;14.00;86.10
49731;DHT22;35622;52.008;5.426;2022-12-29T00:04:21;14.00;85.80
49731;DHT22;35622;52.008;5.426;2022-12-29T00:06:46;14.10;85.30
49731;DHT22;35622;52.008;5.426;2022-12-29T00:09:12;14.30;85.00
49731;DHT22;35622;52.008;5.426;2022-12-29T00:11:38;14.40;84.20
49731;DHT22;35622;52.008;5.426;2022-12-29T00:14:04;14.30;84.20
49731;DHT22;35622;52.008;5.426;2022-12-29T00:16:48;14.50;84.00
49731;DHT22;35622;52.008;5.426;2022-12-29T00:19:13;14.30;83.80
49731;DHT22;35622;52.008;5.426;2022-12-29T00:21:58;14.30;84.00
49731;DHT22;35622;52.008;5.426;2022-12-29T00:24:43;14.30;83.30
49731;DHT22;35622;52.008;5.426;2022-12-29T00:27:28;14.30;84.10
49731;DHT22;35622;52.008;5.426;2022-12-29T00:30:18;14.30;83.80
49731;DHT22;35622;52.008;5.426;2022-12-29T00:33:13;14.30;83.90
49731;DHT22;35622;52.008;5.426;2022-12-29T00:36:23;14.30;83.80
49731;DHT22;35622;52.008;5.426;2022-12-29T00:38:54;14.30;83.90
49731;DHT22;35622;52.008;5.426;2022-12-29T00:41:39;14.40;83.40
49731;DHT22;35622;52.008;5.426;2022-12-29T00:44:25;14.50;82.60
49731;DHT22;35622;52.008;5.426;2022-12-29T00:46:50;14.60;83.40
49731;DHT22;35622;52.008;5.426;2022-12-29T00:49:16;14.50;82.50
49731;DHT22;35622;52.008;5.426;2022-12-29T00:52:03;14.50;82.50
49731;DHT22;35622;52.008;5.426;2022-12-29T00:54:31;14.50;82.70
49731;DHT22;35622;52.008;5.426;2022-12-29T00:56:57;14.60;81.80
49731;DHT22;35622;52.008;5.426;2022-12-29T00:59:23;14.50;81.90
49731;DHT22;35622;52.008;5.426;2022-12-29T01:01:50;14.60;81.30
49731;DHT22;35622;52.008;5.426;2022-12-29T01:04:15;14.60;81.40
49731;DHT22;35622;52.008;5.426;2022-12-29T01:06:41;14.40;81.70
49731;DHT22;35622;52.008;5.426;2022-12-29T01:09:08;14.70;81.60
49731;DHT22;35622;52.008;5.426;2022-12-29T01:11:52;14.70;80.70
49731;DHT22;35622;52.008;5.426;2022-12-29T01:14:19;14.70;81.40
49731;DHT22;35622;52.008;5.426;2022-12-29T01:16:45;14.40;82.40
49731;DHT22;35622;52.008;5.426;2022-12-29T01:19:12;14.30;83.60
49731;DHT22;35622;52.008;5.426;2022-12-29T01:21:37;14.30;84.00
49731;DHT22;35622;52.008;5.426;2022-12-29T01:24:03;14.10;85.60
49731;DHT22;35622;52.008;5.426;2022-12-29T01:26:29;14.00;86.20
49731;DHT22;35622;52.008;5.426;2022-12-29T01:28:54;14.10;86.80
49731;DHT22;35622;52.008;5.426;2022-12-29T01:31:21;13.80;88.10
49731;DHT22;35622;52.008;5.426;2022-12-29T01:33:46;13.70;88.80
49731;DHT22;35622;52.008;5.426;2022-12-29T01:36:14;13.80;88.60
49731;DHT22;35622;52.008;5.426;2022-12-29T01:38:41;13.70;89.10
49731;DHT22;35622;52.008;5.426;2022-12-29T01:41:08;13.70;89.00
49731;DHT22;35622;52.008;5.426;2022-12-29T01:43:49;13.60;90.00
49731;DHT22;35622;52.008;5.426;2022-12-29T01:49:15;13.60;90.20
49731;DHT22;35622;52.008;5.426;2022-12-29T01:51:48;13.70;90.10
49731;DHT22;35622;52.008;5.426;2022-12-29T01:54:25;13.60;90.10
49731;DHT22;35622;52.008;5.426;2022-12-29T01:56:53;13.70;90.10
49731;DHT22;35622;52.008;5.426;2022-12-29T01:59:24;13.60;90.20
49731;DHT22;35622;52.008;5.426;2022-12-29T02:01:52;13.70;90.30
49731;DHT22;35622;52.008;5.426;2022-12-29T02:04:18;13.80;90.00
49731;DHT22;35622;52.008;5.426;2022-12-29T02:07:08;13.80;90.40
49731;DHT22;35622;52.008;5.426;2022-12-29T02:09:35;13.90;89.60
49731;DHT22;35622;52.008;5.426;2022-12-29T02:12:01;13.90;89.10
49731;DHT22;35622;52.008;5.426;2022-12-29T02:14:27;13.70;89.90
49731;DHT22;35622;52.008;5.426;2022-12-29T02:31:31;13.60;89.60
49731;DHT22;35622;52.008;5.426;2022-12-29T02:34:18;13.40;90.00
49731;DHT22;35622;52.008;5.426;2022-12-29T02:42:14;13.30;89.10
49731;DHT22;35622;52.008;5.426;2022-12-29T02:45:08;13.40;89.00
49731;DHT22;35622;52.008;5.426;2022-12-29T02:50:44;13.50;88.60
49731;DHT22;35622;52.008;5.426;2022-12-29T02:53:15;13.60;87.80
49731;DHT22;35622;52.008;5.426;2022-12-29T02:55:49;13.50;87.90
49731;DHT22;35622;52.008;5.426;2022-12-29T02:58:23;13.40;88.30
49731;DHT22;35622;52.008;5.426;2022-12-29T03:09:00;13.50;88.80
49731;DHT22;35622;52.008;5.426;2022-12-29T03:11:33;13.60;88.70
49731;DHT22;35622;52.008;5.426;2022-12-29T03:14:33;13.60;88.40
49731;DHT22;35622;52.008;5.426;2022-12-29T03:19:52;13.50;87.40
49731;DHT22;35622;52.008;5.426;2022-12-29T03:22:25;13.40;87.70
49731;DHT22;35622;52.008;5.426;2022-12-29T03:27:53;13.00;88.70
49731;DHT22;35622;52.008;5.426;2022-12-29T03:30:20;13.20;88.80
49731;DHT22;35622;52.008;5.426;2022-12-29T03:32:55;13.20;87.40
49731;DHT22;35622;52.008;5.426;2022-12-29T03:35:25;13.20;87.50
49731;DHT22;35622;52.008;5.426;2022-12-29T03:37:59;13.20;87.10
49731;DHT22;35622;52.008;5.426;2022-12-29T03:40:27;13.30;86.10
49731;DHT22;35622;52.008;5.426;2022-12-29T03:42:54;13.10;86.70
49731;DHT22;35622;52.008;5.426;2022-12-29T03:45:20;12.90;87.90
49731;DHT22;35622;52.008;5.426;2022-12-29T03:47:45;13.10;87.20
49731;DHT22;35622;52.008;5.426;2022-12-29T03:50:12;13.10;86.40
49731;DHT22;35622;52.008;5.426;2022-12-29T03:52:38;13.10;86.00
49731;DHT22;35622;52.008;5.426;2022-12-29T03:55:04;13.20;85.00
49731;DHT22;35622;52.008;5.426;2022-12-29T03:57:30;13.10;84.70
49731;DHT22;35622;52.008;5.426;2022-12-29T03:59:55;13.10;84.60
49731;DHT22;35622;52.008;5.426;2022-12-29T04:02:21;13.10;85.00
49731;DHT22;35622;52.008;5.426;2022-12-29T04:04:47;13.00;84.50
49731;DHT22;35622;52.008;5.426;2022-12-29T04:07:12;13.00;84.50
49731;DHT22;35622;52.008;5.426;2022-12-29T04:09:38;13.00;84.90
49731;DHT22;35622;52.008;5.426;2022-12-29T04:12:04;13.00;85.30
49731;DHT22;35622;52.008;5.426;2022-12-29T04:14:29;13.00;85.90
49731;DHT22;35622;52.008;5.426;2022-12-29T04:16:55;13.00;86.20
49731;DHT22;35622;52.008;5.426;2022-12-29T04:19:21;12.90;86.50
49731;DHT22;35622;52.008;5.426;2022-12-29T04:21:46;12.90;86.60
49731;DHT22;35622;52.008;5.426;2022-12-29T04:24:12;12.90;86.80
49731;DHT22;35622;52.008;5.426;2022-12-29T04:26:38;12.80;87.40
49731;DHT22;35622;52.008;5.426;2022-12-29T04:29:04;13.00;87.00
49731;DHT22;35622;52.008;5.426;2022-12-29T04:31:29;13.00;87.10
49731;DHT22;35622;52.008;5.426;2022-12-29T04:33:55;12.90;87.10
49731;DHT22;35622;52.008;5.426;2022-12-29T04:36:23;13.00;86.40
49731;DHT22;35622;52.008;5.426;2022-12-29T04:38:48;13.00;85.80
49731;DHT22;35622;52.008;5.426;2022-12-29T04:41:14;13.00;84.40
49731;DHT22;35622;52.008;5.426;2022-12-29T04:43:39;13.10;83.80
49731;DHT22;35622;52.008;5.426;2022-12-29T04:46:05;13.10;83.70
49731;DHT22;35622;52.008;5.426;2022-12-29T04:48:31;13.10;84.20
49731;DHT22;35622;52.008;5.426;2022-12-29T04:50:56;13.20;83.90
49731;DHT22;35622;52.008;5.426;2022-12-29T04:53:22;13.10;83.30
49731;DHT22;35622;52.008;5.426;2022-12-29T04:55:51;13.10;83.40
49731;DHT22;35622;52.008;5.426;2022-12-29T04:58:18;13.30;81.70
49731;DHT22;35622;52.008;5.426;2022-12-29T05:00:44;13.10;81.90
49731;DHT22;35622;52.008;5.426;2022-12-29T05:03:09;12.90;82.90
49731;DHT22;35622;52.008;5.426;2022-12-29T05:05:35;12.80;83.20
49731;DHT22;35622;52.008;5.426;2022-12-29T05:08:00;12.90;83.40
49731;DHT22;35622;52.008;5.426;2022-12-29T05:10:26;13.10;83.70
49731;DHT22;35622;52.008;5.426;2022-12-29T05:12:52;13.10;82.20
49731;DHT22;35622;52.008;5.426;2022-12-29T05:15:17;13.10;82.70
49731;DHT22;35622;52.008;5.426;2022-12-29T05:17:43;13.00;81.60
49731;DHT22;35622;52.008;5.426;2022-12-29T05:20:09;13.10;81.90
49731;DHT22;35622;52.008;5.426;2022-12-29T05:22:35;12.90;81.90
49731;DHT22;35622;52.008;5.426;2022-12-29T05:25:01;13.00;81.50
49731;DHT22;35622;52.008;5.426;2022-12-29T05:27:26;13.00;80.90
49731;DHT22;35622;52.008;5.426;2022-12-29T05:29:52;12.90;81.70
49731;DHT22;35622;52.008;5.426;2022-12-29T05:32:17;12.80;81.50
49731;DHT22;35622;52.008;5.426;2022-12-29T05:34:43;12.90;82.00
49731;DHT22;35622;52.008;5.426;2022-12-29T05:37:08;13.00;81.80
49731;DHT22;35622;52.008;5.426;2022-12-29T05:39:34;12.90;82.70
49731;DHT22;35622;52.008;5.426;2022-12-29T05:42:00;12.90;82.30
49731;DHT22;35622;52.008;5.426;2022-12-29T05:44:25;12.80;81.20
49731;DHT22;35622;52.008;5.426;2022-12-29T05:46:51;12.70;80.60
49731;DHT22;35622;52.008;5.426;2022-12-29T05:49:17;12.80;80.70
49731;DHT22;35622;52.008;5.426;2022-12-29T05:51:42;12.70;80.00
49731;DHT22;35622;52.008;5.426;2022-12-29T05:54:08;12.90;80.70
49731;DHT22;35622;52.008;5.426;2022-12-29T05:56:34;12.90;80.80
49731;DHT22;35622;52.008;5.426;2022-12-29T05:59:00;12.70;81.00
49731;DHT22;35622;52.008;5.426;2022-12-29T06:01:25;12.70;80.30
49731;DHT22;35622;52.008;5.426;2022-12-29T06:03:51;12.90;79.90
49731;DHT22;35622;52.008;5.426;2022-12-29T06:06:16;13.10;79.30
49731;DHT22;35622;52.008;5.426;2022-12-29T06:08:42;13.10;78.70
49731;DHT22;35622;52.008;5.426;2022-12-29T06:11:08;13.00;79.20
49731;DHT22;35622;52.008;5.426;2022-12-29T06:13:33;13.00;78.30
49731;DHT22;35622;52.008;5.426;2022-12-29T06:15:59;13.00;79.70
49731;DHT22;35622;52.008;5.426;2022-12-29T06:18:24;12.90;79.00
49731;DHT22;35622;52.008;5.426;2022-12-29T06:20:50;12.80;79.00
49731;DHT22;35622;52.008;5.426;2022-12-29T06:23:16;12.80;78.70
49731;DHT22;35622;52.008;5.426;2022-12-29T06:25:43;12.90;79.30
49731;DHT22;35622;52.008;5.426;2022-12-29T06:28:09;13.00;78.60
49731;DHT22;35622;52.008;5.426;2022-12-29T06:30:36;13.00;78.30
49731;DHT22;35622;52.008;5.426;2022-12-29T06:33:01;13.10;78.40
49731;DHT22;35622;52.008;5.426;2022-12-29T06:35:27;13.30;78.00
49731;DHT22;35622;52.008;5.426;2022-12-29T06:37:53;13.30;78.00
49731;DHT22;35622;52.008;5.426;2022-12-29T06:40:18;13.20;78.80
49731;DHT22;35622;52.008;5.426;2022-12-29T06:42:44;13.30;78.40
49731;DHT22;35622;52.008;5.426;2022-12-29T06:45:10;13.00;79.60
49731;DHT22;35622;52.008;5.426;2022-12-29T06:47:36;13.00;79.30
49731;DHT22;35622;52.008;5.426;2022-12-29T06:50:02;13.20;79.20
49731;DHT22;35622;52.008;5.426;2022-12-29T06:52:28;13.10;78.50
49731;DHT22;35622;52.008;5.426;2022-12-29T06:54:54;13.10;78.80
49731;DHT22;35622;52.008;5.426;2022-12-29T06:57:20;12.90;79.40
49731;DHT22;35622;52.008;5.426;2022-12-29T06:59:46;12.80;79.10
49731;DHT22;35622;52.008;5.426;2022-12-29T07:02:12;12.60;78.80
49731;DHT22;35622;52.008;5.426;2022-12-29T07:04:40;12.30;80.60
49731;DHT22;35622;52.008;5.426;2022-12-29T07:07:05;12.20;81.80
49731;DHT22;35622;52.008;5.426;2022-12-29T07:09:31;12.30;81.80
49731;DHT22;35622;52.008;5.426;2022-12-29T07:11:56;12.20;83.10
49731;DHT22;35622;52.008;5.426;2022-12-29T07:14:22;12.20;83.50
49731;DHT22;35622;52.008;5.426;2022-12-29T07:16:48;12.30;83.80
49731;DHT22;35622;52.008;5.426;2022-12-29T07:19:13;12.30;83.90
49731;DHT22;35622;52.008;5.426;2022-12-29T07:21:39;12.30;84.60
49731;DHT22;35622;52.008;5.426;2022-12-29T07:24:05;12.10;85.60
49731;DHT22;35622;52.008;5.426;2022-12-29T07:26:31;12.00;86.30
49731;DHT22;35622;52.008;5.426;2022-12-29T07:28:56;11.90;87.30
49731;DHT22;35622;52.008;5.426;2022-12-29T07:31:24;11.70;88.50
49731;DHT22;35622;52.008;5.426;2022-12-29T07:33:49;11.60;89.10
49731;DHT22;35622;52.008;5.426;2022-12-29T07:36:15;11.70;88.30
49731;DHT22;35622;52.008;5.426;2022-12-29T07:38:42;11.80;87.50
49731;DHT22;35622;52.008;5.426;2022-12-29T07:41:08;11.60;87.20
49731;DHT22;35622;52.008;5.426;2022-12-29T07:43:33;11.60;88.00
49731;DHT22;35622;52.008;5.426;2022-12-29T07:45:59;11.70;88.00
49731;DHT22;35622;52.008;5.426;2022-12-29T07:48:25;11.40;88.20
49731;DHT22;35622;52.008;5.426;2022-12-29T07:50:51;11.50;88.10
49731;DHT22;35622;52.008;5.426;2022-12-29T07:53:17;11.50;87.70
49731;DHT22;35622;52.008;5.426;2022-12-29T07:55:43;11.50;88.90
49731;DHT22;35622;52.008;5.426;2022-12-29T07:58:08;11.50;88.60
49731;DHT22;35622;52.008;5.426;2022-12-29T08:00:34;11.50;89.10
49731;DHT22;35622;52.008;5.426;2022-12-29T08:03:00;11.70;89.10
49731;DHT22;35622;52.008;5.426;2022-12-29T08:05:25;11.80;88.90
49731;DHT22;35622;52.008;5.426;2022-12-29T08:07:51;11.90;89.00
49731;DHT22;35622;52.008;5.426;2022-12-29T08:10:17;12.10;88.60
49731;DHT22;35622;52.008;5.426;2022-12-29T08:12:43;12.00;88.20
49731;DHT22;35622;52.008;5.426;2022-12-29T08:15:10;12.10;87.70
49731;DHT22;35622;52.008;5.426;2022-12-29T08:17:36;12.10;88.60
49731;DHT22;35622;52.008;5.426;2022-12-29T08:20:02;12.10;88.90
49731;DHT22;35622;52.008;5.426;2022-12-29T08:22:28;12.30;88.10
49731;DHT22;35622;52.008;5.426;2022-12-29T08:24:53;12.20;88.00
49731;DHT22;35622;52.008;5.426;2022-12-29T08:27:19;12.10;88.30
49731;DHT22;35622;52.008;5.426;2022-12-29T08:29:45;12.30;87.70
49731;DHT22;35622;52.008;5.426;2022-12-29T08:32:11;12.50;87.30
49731;DHT22;35622;52.008;5.426;2022-12-29T08:34:36;12.50;87.50
49731;DHT22;35622;52.008;5.426;2022-12-29T08:37:02;12.40;85.90
49731;DHT22;35622;52.008;5.426;2022-12-29T08:39:28;12.30;84.40
49731;DHT22;35622;52.008;5.426;2022-12-29T08:41:53;12.30;84.30
49731;DHT22;35622;52.008;5.426;2022-12-29T08:44:19;12.20;85.10
49731;DHT22;35622;52.008;5.426;2022-12-29T08:46:45;12.10;85.30
49731;DHT22;35622;52.008;5.426;2022-12-29T08:49:10;12.10;86.10
49731;DHT22;35622;52.008;5.426;2022-12-29T08:51:36;12.30;84.90
49731;DHT22;35622;52.008;5.426;2022-12-29T08:54:02;12.40;84.90
49731;DHT22;35622;52.008;5.426;2022-12-29T08:56:28;12.40;84.60
49731;DHT22;35622;52.008;5.426;2022-12-29T08:58:53;12.40;85.00
49731;DHT22;35622;52.008;5.426;2022-12-29T09:01:19;12.20;85.80
49731;DHT22;35622;52.008;5.426;2022-12-29T09:03:46;12.40;85.60
49731;DHT22;35622;52.008;5.426;2022-12-29T09:06:12;12.40;85.50
49731;DHT22;35622;52.008;5.426;2022-12-29T09:08:37;12.60;85.10
49731;DHT22;35622;52.008;5.426;2022-12-29T09:11:08;12.60;84.50
49731;DHT22;35622;52.008;5.426;2022-12-29T09:13:34;12.50;83.60
49731;DHT22;35622;52.008;5.426;2022-12-29T09:16:00;12.70;85.30
49731;DHT22;35622;52.008;5.426;2022-12-29T09:18:26;12.80;83.80
49731;DHT22;35622;52.008;5.426;2022-12-29T09:20:59;12.60;84.10
49731;DHT22;35622;52.008;5.426;2022-12-29T09:23:25;12.70;84.40
49731;DHT22;35622;52.008;5.426;2022-12-29T09:25:50;12.70;83.50
49731;DHT22;35622;52.008;5.426;2022-12-29T09:28:16;12.80;83.60
49731;DHT22;35622;52.008;5.426;2022-12-29T09:30:42;12.80;83.50
49731;DHT22;35622;52.008;5.426;2022-12-29T09:33:07;12.90;83.80
49731;DHT22;35622;52.008;5.426;2022-12-29T09:35:33;12.80;84.40
49731;DHT22;35622;52.008;5.426;2022-12-29T09:37:58;12.70;85.50
49731;DHT22;35622;52.008;5.426;2022-12-29T09:45:42;12.60;85.30
49731;DHT22;35622;52.008;5.426;2022-12-29T09:48:20;12.50;86.30
49731;DHT22;35622;52.008;5.426;2022-12-29T09:50:57;12.40;87.30
49731;DHT22;35622;52.008;5.426;2022-12-29T09:53:35;12.50;87.70
49731;DHT22;35622;52.008;5.426;2022-12-29T09:56:01;12.50;87.70
49731;DHT22;35622;52.008;5.426;2022-12-29T09:58:44;12.40;87.80
49731;DHT22;35622;52.008;5.426;2022-12-29T10:01:34;12.50;88.20
49731;DHT22;35622;52.008;5.426;2022-12-29T10:04:02;12.60;87.80
49731;DHT22;35622;52.008;5.426;2022-12-29T10:07:01;12.70;87.60
49731;DHT22;35622;52.008;5.426;2022-12-29T10:09:56;12.60;87.70
49731;DHT22;35622;52.008;5.426;2022-12-29T10:13:01;12.50;88.20
49731;DHT22;35622;52.008;5.426;2022-12-29T10:15:40;12.60;88.80
49731;DHT22;35622;52.008;5.426;2022-12-29T10:21:39;12.50;88.60
49731;DHT22;35622;52.008;5.426;2022-12-29T10:26:22;12.70;88.60
49731;DHT22;35622;52.008;5.426;2022-12-29T10:31:46;12.70;87.70
49731;DHT22;35622;52.008;5.426;2022-12-29T10:34:37;12.40;88.40
49731;DHT22;35622;52.008;5.426;2022-12-29T10:37:24;12.50;88.80
49731;DHT22;35622;52.008;5.426;2022-12-29T10:39:55;12.50;89.00
49731;DHT22;35622;52.008;5.426;2022-12-29T10:42:32;12.30;89.70
49731;DHT22;35622;52.008;5.426;2022-12-29T10:45:00;12.30;89.80
49731;DHT22;35622;52.008;5.426;2022-12-29T10:47:34;12.40;89.80
49731;DHT22;35622;52.008;5.426;2022-12-29T10:50:01;12.40;90.00
49731;DHT22;35622;52.008;5.426;2022-12-29T10:52:27;12.50;90.20
49731;DHT22;35622;52.008;5.426;2022-12-29T10:55:27;12.70;89.20
49731;DHT22;35622;52.008;5.426;2022-12-29T10:57:56;12.80;89.70
49731;DHT22;35622;52.008;5.426;2022-12-29T11:00:24;13.00;89.10
49731;DHT22;35622;52.008;5.426;2022-12-29T11:03:12;13.10;89.10
49731;DHT22;35622;52.008;5.426;2022-12-29T11:08:27;13.20;86.60
49731;DHT22;35622;52.008;5.426;2022-12-29T11:11:23;13.40;86.70
49731;DHT22;35622;52.008;5.426;2022-12-29T11:13:54;13.70;86.70
49731;DHT22;35622;52.008;5.426;2022-12-29T11:16:32;13.70;86.30
49731;DHT22;35622;52.008;5.426;2022-12-29T11:19:00;13.70;84.20
49731;DHT22;35622;52.008;5.426;2022-12-29T11:21:36;13.60;84.50
49731;DHT22;35622;52.008;5.426;2022-12-29T11:24:28;13.30;84.90
49731;DHT22;35622;52.008;5.426;2022-12-29T11:27:15;13.10;86.20
49731;DHT22;35622;52.008;5.426;2022-12-29T11:29:42;13.10;86.00
49731;DHT22;35622;52.008;5.426;2022-12-29T11:32:17;13.10;86.10
49731;DHT22;35622;52.008;5.426;2022-12-29T11:34:43;13.00;86.60
49731;DHT22;35622;52.008;5.426;2022-12-29T11:39:56;13.20;85.30
49731;DHT22;35622;52.008;5.426;2022-12-29T11:42:32;13.10;86.20
49731;DHT22;35622;52.008;5.426;2022-12-29T11:45:15;12.90;86.70
49731;DHT22;35622;52.008;5.426;2022-12-29T11:47:56;12.80;86.10
49731;DHT22;35622;52.008;5.426;2022-12-29T11:50:29;12.80;86.10
49731;DHT22;35622;52.008;5.426;2022-12-29T11:53:05;12.50;85.70
49731;DHT22;35622;52.008;5.426;2022-12-29T11:55:38;11.90;88.20
49731;DHT22;35622;52.008;5.426;2022-12-29T11:58:04;12.10;89.80
49731;DHT22;35622;52.008;5.426;2022-12-29T12:00:34;12.40;88.50
49731;DHT22;35622;52.008;5.426;2022-12-29T12:03:14;12.40;89.10
49731;DHT22;35622;52.008;5.426;2022-12-29T12:05:58;12.60;89.70
49731;DHT22;35622;52.008;5.426;2022-12-29T12:08:41;13.10;88.40
49731;DHT22;35622;52.008;5.426;2022-12-29T12:13:50;13.40;86.80
49731;DHT22;35622;52.008;5.426;2022-12-29T12:16:21;13.50;86.40
49731;DHT22;35622;52.008;5.426;2022-12-29T12:18:51;13.30;86.00
49731;DHT22;35622;52.008;5.426;2022-12-29T12:21:36;13.00;86.40
49731;DHT22;35622;52.008;5.426;2022-12-29T12:33:04;13.20;88.00
49731;DHT22;35622;52.008;5.426;2022-12-29T12:35:56;13.30;87.00
49731;DHT22;35622;52.008;5.426;2022-12-29T12:43:50;13.30;86.90
49731;DHT22;35622;52.008;5.426;2022-12-29T12:49:23;13.60;85.40
49731;DHT22;35622;52.008;5.426;2022-12-29T12:52:04;13.70;85.50
49731;DHT22;35622;52.008;5.426;2022-12-29T12:55:23;14.00;84.00
49731;DHT22;35622;52.008;5.426;2022-12-29T13:00:18;14.00;82.40
49731;DHT22;35622;52.008;5.426;2022-12-29T13:03:05;13.80;82.10
49731;DHT22;35622;52.008;5.426;2022-12-29T13:05:50;13.80;82.80
49731;DHT22;35622;52.008;5.426;2022-12-29T13:12:30;13.80;82.00
49731;DHT22;35622;52.008;5.426;2022-12-29T13:15:09;13.80;82.20
49731;DHT22;35622;52.008;5.426;2022-12-29T13:21:02;13.50;83.10
49731;DHT22;35622;52.008;5.426;2022-12-29T13:23:58;13.50;84.30
49731;DHT22;35622;52.008;5.426;2022-12-29T13:26:34;13.70;83.30
49731;DHT22;35622;52.008;5.426;2022-12-29T13:31:56;13.80;82.20
49731;DHT22;35622;52.008;5.426;2022-12-29T13:34:42;13.80;82.40
49731;DHT22;35622;52.008;5.426;2022-12-29T13:37:16;13.80;81.50
49731;DHT22;35622;52.008;5.426;2022-12-29T13:39:49;13.70;81.10
49731;DHT22;35622;52.008;5.426;2022-12-29T13:42:16;13.70;81.10
49731;DHT22;35622;52.008;5.426;2022-12-29T13:44:47;13.50;81.50
49731;DHT22;35622;52.008;5.426;2022-12-29T13:48:15;13.60;81.60
49731;DHT22;35622;52.008;5.426;2022-12-29T13:50:24;13.60;80.80
49731;DHT22;35622;52.008;5.426;2022-12-29T13:53:19;13.70;80.90
49731;DHT22;35622;52.008;5.426;2022-12-29T14:03:54;13.50;81.00
49731;DHT22;35622;52.008;5.426;2022-12-29T14:06:34;13.40;81.10
49731;DHT22;35622;52.008;5.426;2022-12-29T14:09:34;13.30;81.70
49731;DHT22;35622;52.008;5.426;2022-12-29T14:11:51;13.30;80.30
49731;DHT22;35622;52.008;5.426;2022-12-29T14:14:30;13.30;80.30
49731;DHT22;35622;52.008;5.426;2022-12-29T14:17:19;13.20;79.10
49731;DHT22;35622;52.008;5.426;2022-12-29T14:19:45;13.00;79.30
49731;DHT22;35622;52.008;5.426;2022-12-29T14:22:12;12.90;80.70
49731;DHT22;35622;52.008;5.426;2022-12-29T14:24:43;12.90;81.10
49731;DHT22;35622;52.008;5.426;2022-12-29T14:34:49;12.40;84.00
49731;DHT22;35622;52.008;5.426;2022-12-29T14:37:30;12.30;84.80
49731;DHT22;35622;52.008;5.426;2022-12-29T14:42:42;12.50;85.40
49731;DHT22;35622;52.008;5.426;2022-12-29T14:45:27;12.40;85.50
49731;DHT22;35622;52.008;5.426;2022-12-29T14:47:54;12.60;85.10
49731;DHT22;35622;52.008;5.426;2022-12-29T14:50:25;12.60;85.20
49731;DHT22;35622;52.008;5.426;2022-12-29T14:53:03;12.40;85.70
49731;DHT22;35622;52.008;5.426;2022-12-29T14:55:55;12.60;85.40
49731;DHT22;35622;52.008;5.426;2022-12-29T14:58:30;12.50;85.50
49731;DHT22;35622;52.008;5.426;2022-12-29T15:00:56;12.60;85.30
49731;DHT22;35622;52.008;5.426;2022-12-29T15:03:32;12.50;85.60
49731;DHT22;35622;52.008;5.426;2022-12-29T15:06:09;12.60;85.50
49731;DHT22;35622;52.008;5.426;2022-12-29T15:08:51;12.60;85.50
49731;DHT22;35622;52.008;5.426;2022-12-29T15:14:03;12.80;83.90
49731;DHT22;35622;52.008;5.426;2022-12-29T15:16:49;12.70;84.60
49731;DHT22;35622;52.008;5.426;2022-12-29T15:19:25;12.70;84.00
49731;DHT22;35622;52.008;5.426;2022-12-29T15:21:52;12.70;84.10
49731;DHT22;35622;52.008;5.426;2022-12-29T15:24:18;12.70;83.90
49731;DHT22;35622;52.008;5.426;2022-12-29T15:26:49;12.70;84.00
49731;DHT22;35622;52.008;5.426;2022-12-29T15:32:01;12.50;84.70
49731;DHT22;35622;52.008;5.426;2022-12-29T15:34:30;12.50;84.30
49731;DHT22;35622;52.008;5.426;2022-12-29T15:36:56;12.30;85.20
49731;DHT22;35622;52.008;5.426;2022-12-29T15:39:29;12.30;85.30
49731;DHT22;35622;52.008;5.426;2022-12-29T15:41:59;12.20;85.10
49731;DHT22;35622;52.008;5.426;2022-12-29T15:44:37;12.30;85.70
49731;DHT22;35622;52.008;5.426;2022-12-29T15:47:13;12.40;85.20
49731;DHT22;35622;52.008;5.426;2022-12-29T15:49:42;12.60;83.60
49731;DHT22;35622;52.008;5.426;2022-12-29T15:52:09;12.40;83.20
49731;DHT22;35622;52.008;5.426;2022-12-29T15:54:36;12.20;83.50
49731;DHT22;35622;52.008;5.426;2022-12-29T15:57:02;12.20;84.50
49731;DHT22;35622;52.008;5.426;2022-12-29T15:59:31;12.30;84.30
49731;DHT22;35622;52.008;5.426;2022-12-29T16:01:58;12.40;83.70
49731;DHT22;35622;52.008;5.426;2022-12-29T16:04:29;12.50;84.00
49731;DHT22;35622;52.008;5.426;2022-12-29T16:07:05;12.40;83.70
49731;DHT22;35622;52.008;5.426;2022-12-29T16:09:41;12.50;82.40
49731;DHT22;35622;52.008;5.426;2022-12-29T16:12:17;12.40;82.90
49731;DHT22;35622;52.008;5.426;2022-12-29T16:14:47;12.20;83.60
49731;DHT22;35622;52.008;5.426;2022-12-29T16:17:15;12.20;83.10
49731;DHT22;35622;52.008;5.426;2022-12-29T16:22:41;12.10;82.60
49731;DHT22;35622;52.008;5.426;2022-12-29T16:25:32;12.10;83.10
49731;DHT22;35622;52.008;5.426;2022-12-29T16:28:01;12.30;82.80
49731;DHT22;35622;52.008;5.426;2022-12-29T16:30:29;12.50;81.10
49731;DHT22;35622;52.008;5.426;2022-12-29T16:32:58;12.40;79.50
49731;DHT22;35622;52.008;5.426;2022-12-29T16:38:18;12.10;79.90
49731;DHT22;35622;52.008;5.426;2022-12-29T16:40:57;11.90;80.60
49731;DHT22;35622;52.008;5.426;2022-12-29T16:43:26;11.80;81.30
49731;DHT22;35622;52.008;5.426;2022-12-29T16:48:20;11.70;81.40
49731;DHT22;35622;52.008;5.426;2022-12-29T16:50:47;11.80;80.50
49731;DHT22;35622;52.008;5.426;2022-12-29T16:53:36;11.60;80.60
49731;DHT22;35622;52.008;5.426;2022-12-29T16:56:12;11.50;81.40
49731;DHT22;35622;52.008;5.426;2022-12-29T16:58:38;11.40;81.30
49731;DHT22;35622;52.008;5.426;2022-12-29T17:01:06;11.30;82.10
49731;DHT22;35622;52.008;5.426;2022-12-29T17:03:43;11.30;82.10
49731;DHT22;35622;52.008;5.426;2022-12-29T17:06:15;11.50;80.90
49731;DHT22;35622;52.008;5.426;2022-12-29T17:08:42;11.40;80.90
49731;DHT22;35622;52.008;5.426;2022-12-29T17:14:19;11.30;81.60
49731;DHT22;35622;52.008;5.426;2022-12-29T17:16:47;11.20;81.80
49731;DHT22;35622;52.008;5.426;2022-12-29T17:19:18;11.40;81.20
49731;DHT22;35622;52.008;5.426;2022-12-29T17:21:44;11.40;80.60
49731;DHT22;35622;52.008;5.426;2022-12-29T17:24:18;11.40;80.30
49731;DHT22;35622;52.008;5.426;2022-12-29T17:26:47;11.40;80.80
49731;DHT22;35622;52.008;5.426;2022-12-29T17:29:22;11.40;80.00
49731;DHT22;35622;52.008;5.426;2022-12-29T17:31:51;11.40;80.50
49731;DHT22;35622;52.008;5.426;2022-12-29T17:34:18;11.40;80.60
49731;DHT22;35622;52.008;5.426;2022-12-29T17:36:44;11.40;79.60
49731;DHT22;35622;52.008;5.426;2022-12-29T17:39:10;11.30;80.40
49731;DHT22;35622;52.008;5.426;2022-12-29T17:41:36;11.30;81.00
49731;DHT22;35622;52.008;5.426;2022-12-29T17:44:02;11.40;80.50
49731;DHT22;35622;52.008;5.426;2022-12-29T17:46:28;11.30;79.70
49731;DHT22;35622;52.008;5.426;2022-12-29T17:48:53;11.20;80.90
49731;DHT22;35622;52.008;5.426;2022-12-29T17:51:20;11.10;81.00
49731;DHT22;35622;52.008;5.426;2022-12-29T17:53:46;10.90;82.10
49731;DHT22;35622;52.008;5.426;2022-12-29T17:56:11;10.70;81.00
49731;DHT22;35622;52.008;5.426;2022-12-29T17:58:37;10.70;81.20
49731;DHT22;35622;52.008;5.426;2022-12-29T18:01:03;10.70;81.60